createdAt,value
2022-08-05T00:02:07.378Z,2.58
2022-08-05T00:12:32.813Z,2.38
2022-08-05T00:22:56.024Z,3.30
2022-08-05T00:34:56.730Z,3.88
2022-08-05T00:44:03.058Z,3.90
2022-08-05T00:54:28.077Z,4.45
2022-08-05T01:04:51.689Z,4.68
2022-08-05T01:15:35.500Z,4.40
2022-08-05T01:26:19.206Z,4.10
2022-08-05T01:36:46.845Z,4.40
2022-08-05T01:47:10.822Z,4.70
2022-08-05T01:58:10.035Z,5.45
2022-08-05T02:08:30.794Z,6.20
2022-08-05T02:18:56.657Z,6.55
2022-08-05T02:29:25.969Z,6.63
2022-08-05T02:39:51.625Z,6.03
2022-08-05T02:50:15.314Z,5.95
2022-08-05T03:00:41.106Z,5.93
2022-08-05T03:11:56.548Z,6.30
2022-08-05T03:22:04.822Z,6.03
2022-08-05T03:32:38.833Z,5.95
2022-08-05T03:43:01.446Z,5.00
2022-08-05T03:55:50.796Z,4.53
2022-08-05T04:04:27.516Z,5.13
2022-08-05T04:14:49.534Z,4.43
2022-08-05T04:25:11.057Z,4.82
2022-08-05T04:36:16.556Z,4.75
2022-08-05T04:46:14.184Z,4.60
2022-08-05T04:56:50.064Z,4.45
2022-08-05T05:07:17.175Z,4.43
2022-08-05T05:17:57.037Z,4.53
2022-08-05T05:28:19.306Z,4.03
2022-08-05T05:38:42.494Z,3.75
2022-08-05T05:49:06.538Z,3.45
2022-08-05T05:59:43.887Z,3.72
2022-08-05T06:10:10.188Z,3.50
2022-08-05T06:20:31.997Z,3.05
2022-08-05T06:30:53.950Z,4.15
2022-08-05T06:41:16.760Z,3.53
2022-08-05T06:51:40.674Z,3.78
2022-08-05T07:02:02.502Z,3.38
2022-08-05T07:12:42.734Z,3.90
2022-08-05T07:23:12.983Z,4.13
2022-08-05T07:33:47.888Z,4.28
2022-08-05T07:44:14.429Z,3.70
2022-08-05T08:05:09.303Z,4.03
2022-08-05T08:16:33.830Z,3.67
2022-08-05T08:26:14.526Z,4.07
2022-08-05T08:36:48.899Z,3.70
2022-08-05T08:47:22.334Z,3.15
2022-08-05T08:57:58.951Z,3.90
2022-08-05T09:08:27.342Z,3.63
2022-08-05T09:18:51.852Z,3.97
2022-08-05T09:29:19.106Z,3.10
2022-08-05T09:39:45.633Z,3.42
2022-08-05T09:50:18.073Z,2.90
2022-08-05T10:01:00.004Z,3.20
2022-08-05T10:11:22.120Z,1.90
2022-08-05T10:21:45.657Z,2.15
2022-08-05T10:32:52.876Z,1.55
2022-08-05T10:42:54.063Z,1.20
2022-08-05T10:53:51.388Z,2.40
2022-08-05T11:04:18.276Z,1.90
2022-08-05T11:15:11.696Z,3.77
2022-08-05T11:26:04.584Z,1.27
2022-08-05T11:36:34.501Z,1.50
2022-08-05T11:47:14.139Z,1.25
2022-08-05T11:58:10.188Z,1.30
2022-08-05T12:08:27.265Z,1.33
2022-08-05T12:18:53.126Z,0.90
2022-08-05T12:29:23.120Z,1.25
2022-08-05T12:39:45.295Z,1.00
2022-08-05T12:50:15.689Z,0.65
2022-08-05T13:02:02.522Z,0.63
2022-08-05T13:12:01.829Z,0.40
2022-08-05T13:22:12.081Z,0.35
2022-08-05T13:32:39.160Z,0.30
2022-08-05T13:43:03.835Z,0.20
2022-08-05T13:53:35.145Z,0.50
2022-08-05T14:04:28.363Z,0.30
2022-08-05T14:14:51.337Z,0.30
2022-08-05T14:25:21.779Z,0.30
2022-08-05T14:35:51.395Z,0.20
2022-08-05T14:46:13.506Z,0.40
2022-08-05T14:56:35.303Z,0.20
2022-08-05T15:06:59.695Z,0.30
2022-08-05T15:17:45.602Z,0.40
2022-08-05T15:28:02.987Z,0.25
2022-08-05T15:38:35.479Z,0.20
2022-08-05T15:49:01.201Z,0.20
2022-08-05T15:59:32.286Z,0.20
2022-08-05T16:09:54.297Z,0.20
2022-08-05T16:20:15.953Z,0.30
2022-08-05T16:30:41.646Z,0.30
2022-08-05T16:42:12.741Z,0.30
2022-08-05T16:51:51.115Z,0.40
2022-08-05T17:02:13.098Z,0.28
2022-08-05T17:12:51.514Z,0.30
2022-08-05T17:24:05.606Z,1.02
2022-08-05T17:33:56.836Z,0.20
2022-08-05T17:44:19.482Z,0.40
2022-08-05T17:54:53.922Z,0.30
2022-08-05T18:05:17.712Z,0.30
2022-08-05T18:15:40.118Z,0.50
2022-08-05T18:26:02.581Z,0.30
2022-08-05T18:36:28.193Z,0.30
2022-08-05T18:46:49.899Z,0.32
2022-08-05T18:57:15.210Z,0.43
2022-08-05T19:07:46.363Z,0.50
2022-08-05T19:18:13.414Z,0.40
2022-08-05T19:28:43.299Z,0.70
2022-08-05T19:39:05.112Z,0.40
2022-08-05T19:49:26.701Z,0.40
2022-08-05T19:59:56.225Z,0.57
2022-08-05T20:10:24.378Z,0.30
2022-08-05T20:20:47.488Z,0.60
2022-08-05T20:31:09.114Z,0.68
2022-08-05T20:41:43.164Z,0.57
2022-08-05T20:52:05.370Z,0.70
2022-08-05T21:02:28.740Z,0.40
2022-08-05T21:12:58.075Z,0.57
2022-08-05T21:23:37.167Z,0.60
2022-08-05T21:34:00.564Z,0.60
2022-08-05T21:44:26.764Z,0.63
2022-08-05T21:54:51.273Z,0.68
2022-08-05T22:05:16.596Z,0.50
2022-08-05T22:16:01.660Z,0.65
2022-08-05T22:26:39.209Z,0.70
2022-08-05T22:37:03.916Z,0.68
2022-08-05T22:47:29.304Z,0.68
2022-08-05T22:57:53.226Z,0.80
2022-08-05T23:08:14.794Z,0.70
2022-08-05T23:18:36.915Z,0.70
2022-08-05T23:29:00.073Z,0.70
2022-08-05T23:39:32.598Z,0.73
2022-08-05T23:50:09.564Z,0.60
